createdAt,value
2023-04-17T00:01:16.023Z,14.70
2023-04-17T00:03:45.049Z,13.00
2023-04-17T00:06:14.272Z,13.60
2023-04-17T00:08:43.693Z,13.40
2023-04-17T00:11:11.913Z,13.00
2023-04-17T00:13:44.186Z,14.70
2023-04-17T00:16:13.851Z,15.20
2023-04-17T00:18:43.091Z,14.10
2023-04-17T00:21:11.127Z,14.50
2023-04-17T00:23:39.680Z,15.20
2023-04-17T00:26:07.819Z,14.70
2023-04-17T00:28:36.840Z,15.00
2023-04-17T00:31:05.507Z,14.10
2023-04-17T00:33:33.763Z,14.30
2023-04-17T00:36:01.763Z,13.90
2023-04-17T00:38:30.034Z,13.70
2023-04-17T00:40:58.165Z,13.80
2023-04-17T00:43:26.217Z,14.10
2023-04-17T00:45:54.322Z,14.20
2023-04-17T00:48:24.304Z,13.70
2023-04-17T00:50:52.515Z,13.40
2023-04-17T00:53:20.572Z,13.30
2023-04-17T00:55:48.727Z,13.80
2023-04-17T00:58:16.867Z,14.80
2023-04-17T01:00:45.160Z,13.10
2023-04-17T01:03:13.457Z,14.90
2023-04-17T01:05:42.220Z,13.10
2023-04-17T01:08:10.888Z,13.90
2023-04-17T01:10:38.807Z,13.80
2023-04-17T01:13:07.660Z,14.00
2023-04-17T01:15:36.108Z,14.50
2023-04-17T01:18:04.394Z,14.40
2023-04-17T01:20:33.096Z,13.70
2023-04-17T01:23:01.226Z,13.10
2023-04-17T01:25:30.274Z,14.40
2023-04-17T01:27:58.410Z,13.00
2023-04-17T01:30:28.099Z,13.30
2023-04-17T01:33:01.178Z,13.10
2023-04-17T01:35:30.159Z,13.40
2023-04-17T01:37:58.991Z,13.70
2023-04-17T01:40:27.199Z,14.60
2023-04-17T01:42:55.320Z,13.50
2023-04-17T01:45:23.345Z,13.50
2023-04-17T01:47:51.900Z,13.50
2023-04-17T01:50:20.121Z,14.40
2023-04-17T01:52:48.586Z,13.70
2023-04-17T01:55:16.664Z,14.20
2023-04-17T01:57:44.728Z,12.10
2023-04-17T02:00:13.486Z,13.10
2023-04-17T02:02:44.365Z,13.40
2023-04-17T02:05:12.639Z,12.90
2023-04-17T02:07:41.013Z,14.00
2023-04-17T02:10:09.814Z,14.70
2023-04-17T02:12:38.287Z,13.30
2023-04-17T02:15:07.413Z,13.90
2023-04-17T02:17:35.699Z,12.90
2023-04-17T02:20:07.061Z,14.10
2023-04-17T02:22:35.087Z,14.10
2023-04-17T02:25:03.364Z,15.10
2023-04-17T02:34:43.213Z,13.00
2023-04-17T02:37:10.556Z,15.20
2023-04-17T02:39:37.472Z,15.60
2023-04-17T02:42:04.411Z,13.70
2023-04-17T02:44:31.552Z,15.10
2023-04-17T02:46:58.348Z,15.10
2023-04-17T02:57:08.951Z,15.10
2023-04-17T02:59:37.380Z,14.10
2023-04-17T03:02:05.681Z,13.80
2023-04-17T03:04:38.926Z,14.10
2023-04-17T03:07:07.141Z,13.30
2023-04-17T03:09:35.567Z,14.30
2023-04-17T03:12:06.048Z,14.40
2023-04-17T03:14:34.090Z,12.50
2023-04-17T03:17:02.112Z,13.40
2023-04-17T03:19:30.765Z,13.30
2023-04-17T03:21:58.959Z,13.30
2023-04-17T03:24:27.441Z,13.40
2023-04-17T03:26:56.304Z,11.20
2023-04-17T03:29:24.462Z,11.80
2023-04-17T03:31:52.906Z,11.70
2023-04-17T03:34:21.877Z,13.20
2023-04-17T03:36:50.674Z,11.80
2023-04-17T03:39:18.708Z,12.10
2023-04-17T03:41:47.162Z,12.60
2023-04-17T03:44:15.594Z,11.40
2023-04-17T03:46:43.488Z,11.80
2023-04-17T03:49:11.983Z,12.20
2023-04-17T03:51:42.766Z,11.00
2023-04-17T03:54:17.622Z,10.40
2023-04-17T03:56:47.170Z,10.80
2023-04-17T03:59:15.395Z,11.10
2023-04-17T04:01:46.570Z,11.10
2023-04-17T04:04:19.070Z,9.90
2023-04-17T04:06:49.546Z,11.10
2023-04-17T04:09:20.381Z,9.40
2023-04-17T04:11:48.511Z,10.30
2023-04-17T04:14:16.871Z,10.50
2023-04-17T04:16:47.002Z,10.70
2023-04-17T04:19:16.367Z,9.70
2023-04-17T04:21:45.333Z,10.10
2023-04-17T04:24:14.497Z,10.80
2023-04-17T04:26:43.543Z,9.70
2023-04-17T04:29:13.944Z,8.80
2023-04-17T04:31:53.798Z,9.00
2023-04-17T04:34:26.003Z,9.90
2023-04-17T04:36:57.019Z,8.60
2023-04-17T04:39:39.344Z,8.50
2023-04-17T04:42:10.119Z,8.30
2023-04-17T04:44:56.981Z,8.60
2023-04-17T04:47:26.955Z,7.90
2023-04-17T04:49:55.706Z,8.10
2023-04-17T04:52:24.077Z,7.90
2023-04-17T04:54:54.328Z,7.90
2023-04-17T04:57:22.579Z,8.40
2023-04-17T04:59:51.262Z,7.60
2023-04-17T05:02:33.304Z,7.00
2023-04-17T05:05:02.144Z,7.50
2023-04-17T05:07:32.381Z,7.80
2023-04-17T05:10:01.108Z,7.40
2023-04-17T05:12:33.270Z,7.70
2023-04-17T05:15:01.470Z,7.40
2023-04-17T05:17:30.157Z,7.10
2023-04-17T05:19:58.323Z,7.20
2023-04-17T05:22:27.753Z,7.10
2023-04-17T05:25:08.740Z,7.10
2023-04-17T05:27:36.868Z,7.30
2023-04-17T05:30:05.729Z,6.70
2023-04-17T05:32:35.174Z,6.80
2023-04-17T05:35:28.999Z,6.70
2023-04-17T05:37:57.531Z,6.60
2023-04-17T05:40:25.881Z,6.40
2023-04-17T05:42:54.016Z,7.30
2023-04-17T05:45:24.198Z,5.90
2023-04-17T05:47:53.733Z,6.30
2023-04-17T05:50:22.006Z,6.90
2023-04-17T05:52:50.869Z,7.10
2023-04-17T05:55:20.479Z,6.40
2023-04-17T05:57:49.739Z,6.70
2023-04-17T06:00:18.825Z,7.40
2023-04-17T06:02:49.962Z,6.70
2023-04-17T06:05:26.381Z,5.90
2023-04-17T06:07:54.527Z,6.40
2023-04-17T06:10:23.095Z,6.20
2023-04-17T06:12:51.476Z,6.10
2023-04-17T06:15:19.908Z,6.20
2023-04-17T06:17:48.078Z,6.00
2023-04-17T06:20:16.417Z,5.40
2023-04-17T06:22:46.851Z,5.70
2023-04-17T06:25:14.959Z,5.30
2023-04-17T06:27:43.506Z,6.10
2023-04-17T06:30:12.286Z,5.90
2023-04-17T06:32:49.092Z,5.20
2023-04-17T06:35:17.655Z,5.50
2023-04-17T06:37:49.351Z,5.90
2023-04-17T06:40:17.640Z,5.80
2023-04-17T06:42:45.783Z,5.60
2023-04-17T06:45:19.107Z,5.70
2023-04-17T06:47:47.309Z,4.70
2023-04-17T06:50:18.577Z,4.50
2023-04-17T06:52:46.748Z,4.60
2023-04-17T06:55:15.054Z,4.70
2023-04-17T06:57:43.001Z,3.90
2023-04-17T07:00:12.283Z,4.00
2023-04-17T07:02:40.982Z,4.00
2023-04-17T07:05:09.470Z,4.10
2023-04-17T07:07:37.791Z,4.60
2023-04-17T07:10:06.958Z,5.20
2023-04-17T07:12:35.302Z,4.60
2023-04-17T07:15:03.494Z,4.20
2023-04-17T07:17:32.006Z,5.00
2023-04-17T07:20:00.005Z,4.30
2023-04-17T07:22:28.962Z,4.20
2023-04-17T07:24:57.230Z,4.20
2023-04-17T07:27:25.621Z,4.00
2023-04-17T07:29:55.315Z,4.30
2023-04-17T07:32:26.249Z,4.90
2023-04-17T07:34:54.249Z,3.50
2023-04-17T07:37:22.291Z,4.30
2023-04-17T07:39:50.605Z,4.20
2023-04-17T07:42:18.656Z,4.10
2023-04-17T07:44:47.497Z,4.10
2023-04-17T07:47:15.616Z,3.90
2023-04-17T07:49:49.045Z,3.80
2023-04-17T07:52:18.312Z,3.90
2023-04-17T07:54:46.540Z,4.40
2023-04-17T07:57:15.483Z,4.20
2023-04-17T07:59:44.128Z,3.90
2023-04-17T08:02:12.404Z,4.40
2023-04-17T08:04:41.983Z,4.30
2023-04-17T08:07:11.397Z,4.40
2023-04-17T08:09:40.583Z,5.00
2023-04-17T08:12:09.934Z,4.80
2023-04-17T08:14:38.871Z,4.20
2023-04-17T08:17:07.826Z,4.20
2023-04-17T08:19:36.157Z,4.50
2023-04-17T08:22:04.822Z,4.10
2023-04-17T08:24:33.174Z,4.10
2023-04-17T08:27:01.641Z,4.30
2023-04-17T08:29:29.749Z,5.60
2023-04-17T08:32:10.863Z,5.50
2023-04-17T08:34:42.559Z,5.20
2023-04-17T08:37:10.851Z,5.20
2023-04-17T08:39:38.982Z,4.80
2023-04-17T08:42:08.044Z,5.30
2023-04-17T08:44:36.400Z,4.40
2023-04-17T08:47:05.658Z,4.10
2023-04-17T08:49:35.036Z,3.90
2023-04-17T08:52:08.265Z,4.10
2023-04-17T08:54:37.968Z,4.40
2023-04-17T08:57:06.323Z,4.20
2023-04-17T08:59:34.350Z,4.30
2023-04-17T09:02:07.498Z,3.60
2023-04-17T09:04:42.574Z,4.00
2023-04-17T09:07:12.187Z,3.90
2023-04-17T09:09:56.229Z,3.50
2023-04-17T09:12:25.414Z,4.00
2023-04-17T09:14:54.069Z,4.70
2023-04-17T09:17:22.248Z,4.10
2023-04-17T09:20:15.020Z,4.40
2023-04-17T09:22:43.364Z,4.00
2023-04-17T09:25:21.110Z,3.30
2023-04-17T09:27:49.314Z,4.10
2023-04-17T09:30:17.505Z,4.10
2023-04-17T09:32:45.710Z,3.60
2023-04-17T09:35:23.813Z,4.10
2023-04-17T09:37:52.965Z,3.30
2023-04-17T09:40:23.243Z,4.20
2023-04-17T09:42:56.169Z,3.40
2023-04-17T09:45:25.294Z,3.60
2023-04-17T09:47:56.140Z,2.80
2023-04-17T09:50:27.255Z,3.00
2023-04-17T09:52:56.222Z,3.60
2023-04-17T09:55:25.217Z,3.50
2023-04-17T09:57:54.272Z,3.70
2023-04-17T10:00:23.853Z,3.50
2023-04-17T10:02:52.380Z,3.50
2023-04-17T10:05:21.933Z,3.30
2023-04-17T10:07:50.175Z,3.10
2023-04-17T10:10:33.875Z,3.40
2023-04-17T10:13:03.393Z,3.20
2023-04-17T10:15:31.454Z,3.70
2023-04-17T10:18:23.853Z,3.70
2023-04-17T10:20:53.787Z,4.10
2023-04-17T10:23:31.692Z,4.40
2023-04-17T10:26:24.677Z,3.90
2023-04-17T10:28:53.852Z,3.30
2023-04-17T10:31:23.860Z,4.10
2023-04-17T10:33:54.316Z,3.90
2023-04-17T10:36:40.974Z,3.70
2023-04-17T10:39:16.345Z,3.30
2023-04-17T10:42:03.514Z,3.70
2023-04-17T10:44:35.653Z,3.60
2023-04-17T10:47:16.280Z,3.30
2023-04-17T10:49:55.671Z,3.20
2023-04-17T10:52:33.420Z,3.20
2023-04-17T10:55:05.750Z,3.50
2023-04-17T10:57:59.390Z,3.70
2023-04-17T11:00:32.320Z,2.90
2023-04-17T11:03:01.381Z,3.10
2023-04-17T11:05:31.492Z,3.20
2023-04-17T11:07:59.601Z,3.20
2023-04-17T11:10:27.933Z,3.80
2023-04-17T11:12:56.947Z,3.40
2023-04-17T11:15:32.123Z,3.30
2023-04-17T11:18:00.413Z,4.50
2023-04-17T11:20:30.252Z,4.50
2023-04-17T11:23:02.901Z,4.00
2023-04-17T11:25:33.955Z,3.40
2023-04-17T11:28:04.955Z,3.70
2023-04-17T11:30:34.652Z,4.00
2023-04-17T11:33:04.261Z,3.70
2023-04-17T11:35:34.126Z,3.10
2023-04-17T11:38:28.677Z,3.00
2023-04-17T11:41:00.456Z,3.00
2023-04-17T11:43:29.584Z,3.60
2023-04-17T11:45:59.262Z,3.10
2023-04-17T11:48:28.498Z,3.40
2023-04-17T11:51:04.120Z,3.30
2023-04-17T11:53:34.539Z,3.50
2023-04-17T11:56:22.337Z,4.00
2023-04-17T11:58:54.709Z,4.30
2023-04-17T12:01:25.008Z,4.20
2023-04-17T12:03:57.210Z,4.10
2023-04-17T12:06:37.914Z,3.20
2023-04-17T12:09:07.444Z,3.40
2023-04-17T12:11:36.090Z,3.00
2023-04-17T12:14:11.863Z,3.60
2023-04-17T12:16:40.216Z,2.80
2023-04-17T12:19:08.847Z,3.10
2023-04-17T12:21:37.274Z,3.20
2023-04-17T12:24:05.942Z,3.10
2023-04-17T12:26:34.070Z,3.30
2023-04-17T12:29:02.239Z,3.80
2023-04-17T12:31:31.018Z,3.20
2023-04-17T12:33:58.933Z,3.50
2023-04-17T12:36:27.056Z,2.50
2023-04-17T12:38:55.426Z,2.60
2023-04-17T12:41:26.676Z,2.80
2023-04-17T12:43:54.779Z,3.40
2023-04-17T12:46:23.077Z,5.50
2023-04-17T12:48:58.363Z,4.40
2023-04-17T12:51:30.719Z,4.00
2023-04-17T12:53:58.769Z,3.10
2023-04-17T12:56:26.787Z,2.20
2023-04-17T12:58:54.800Z,2.50
2023-04-17T13:01:22.980Z,2.20
2023-04-17T13:03:51.233Z,2.40
2023-04-17T13:06:21.599Z,2.50
2023-04-17T13:08:49.980Z,2.50
2023-04-17T13:11:17.969Z,2.50
2023-04-17T13:13:46.229Z,2.30
2023-04-17T13:16:14.362Z,2.20
2023-04-17T13:18:42.626Z,2.10
2023-04-17T13:21:10.781Z,2.00
2023-04-17T13:23:38.854Z,2.10
2023-04-17T13:26:06.851Z,2.20
2023-04-17T13:28:34.863Z,2.00
2023-04-17T13:31:03.332Z,2.30
2023-04-17T13:33:31.754Z,2.10
2023-04-17T13:35:59.740Z,2.10
2023-04-17T13:38:27.891Z,2.20
2023-04-17T13:40:56.046Z,2.00
2023-04-17T13:43:24.455Z,2.00
2023-04-17T13:45:55.408Z,1.80
2023-04-17T13:48:23.912Z,2.00
2023-04-17T13:50:52.131Z,1.60
2023-04-17T13:53:20.399Z,1.70
2023-04-17T13:55:49.468Z,2.20
2023-04-17T13:58:17.705Z,1.90
2023-04-17T14:00:46.720Z,1.70
2023-04-17T14:03:14.982Z,2.20
2023-04-17T14:05:43.211Z,2.00
2023-04-17T14:08:11.550Z,2.20
2023-04-17T14:10:39.585Z,2.40
2023-04-17T14:13:07.717Z,2.20
2023-04-17T14:15:36.571Z,1.60
2023-04-17T14:18:05.145Z,1.70
2023-04-17T14:20:33.561Z,1.90
2023-04-17T14:23:01.805Z,1.80
2023-04-17T14:25:29.915Z,1.60
2023-04-17T14:27:57.952Z,1.70
2023-04-17T14:30:26.204Z,1.80
2023-04-17T14:32:54.583Z,2.00
2023-04-17T14:35:23.583Z,1.70
2023-04-17T14:37:51.553Z,1.80
2023-04-17T14:40:19.556Z,1.50
2023-04-17T14:42:54.034Z,1.70
2023-04-17T14:45:22.901Z,1.80
2023-04-17T14:47:51.212Z,2.20
2023-04-17T14:50:19.698Z,1.80
2023-04-17T14:52:47.904Z,1.90
2023-04-17T14:55:16.042Z,2.10
2023-04-17T14:57:44.276Z,2.30
2023-04-17T15:00:13.030Z,2.40
2023-04-17T15:02:41.472Z,2.10
2023-04-17T15:05:10.075Z,2.50
2023-04-17T15:07:38.961Z,2.10
2023-04-17T15:10:07.569Z,2.50
2023-04-17T15:12:35.958Z,2.70
2023-04-17T15:15:05.140Z,4.20
2023-04-17T15:17:33.906Z,3.60
2023-04-17T15:20:01.998Z,2.40
2023-04-17T15:22:30.412Z,2.40
2023-04-17T15:24:58.678Z,2.20
2023-04-17T15:27:26.733Z,2.40
2023-04-17T15:29:54.845Z,2.80
2023-04-17T15:32:23.157Z,2.50
2023-04-17T15:34:51.426Z,2.20
2023-04-17T15:37:19.462Z,2.60
2023-04-17T15:39:47.784Z,3.00
2023-04-17T15:42:16.153Z,2.40
2023-04-17T15:44:44.169Z,2.20
2023-04-17T15:47:12.093Z,2.40
2023-04-17T15:49:40.432Z,2.20
2023-04-17T15:52:08.770Z,2.70
2023-04-17T15:54:37.854Z,2.60
2023-04-17T16:04:43.972Z,4.80
2023-04-17T16:07:12.377Z,4.10
2023-04-17T16:09:41.876Z,4.20
2023-04-17T16:12:10.356Z,3.50
2023-04-17T16:14:38.641Z,3.50
2023-04-17T16:17:07.246Z,3.60
2023-04-17T16:19:35.625Z,2.80
2023-04-17T16:22:03.996Z,2.40
2023-04-17T16:24:32.209Z,2.50
2023-04-17T16:27:01.243Z,3.00
2023-04-17T16:29:29.537Z,3.30
2023-04-17T16:31:58.275Z,3.60
2023-04-17T16:34:26.539Z,3.40
2023-04-17T16:36:54.476Z,3.70
2023-04-17T16:39:22.631Z,3.00
2023-04-17T16:41:52.927Z,2.70
2023-04-17T16:44:21.331Z,3.10
2023-04-17T16:47:09.349Z,3.00
2023-04-17T16:49:38.329Z,2.90
2023-04-17T16:52:06.454Z,4.20
2023-04-17T16:54:34.920Z,3.90
2023-04-17T16:57:06.152Z,5.10
2023-04-17T16:59:34.469Z,4.40
2023-04-17T17:02:02.904Z,4.90
2023-04-17T17:04:31.476Z,3.90
2023-04-17T17:06:59.588Z,3.80
2023-04-17T17:09:27.912Z,4.30
2023-04-17T17:11:56.977Z,4.30
2023-04-17T17:14:24.994Z,3.60
2023-04-17T17:16:53.728Z,4.50
2023-04-17T17:19:22.111Z,4.30
2023-04-17T17:21:50.678Z,4.30
2023-04-17T17:24:18.719Z,3.80
2023-04-17T17:26:46.886Z,3.70
2023-04-17T17:29:15.424Z,4.10
2023-04-17T17:31:43.838Z,3.40
2023-04-17T17:36:43.759Z,4.30
2023-04-17T17:39:12.143Z,5.20
2023-04-17T17:41:40.813Z,4.80
2023-04-17T17:44:08.960Z,4.70
2023-04-17T17:46:37.576Z,4.70
2023-04-17T17:49:05.945Z,4.30
2023-04-17T17:51:34.127Z,4.20
2023-04-17T17:54:02.329Z,3.60
2023-04-17T17:56:30.724Z,3.80
2023-04-17T17:58:59.163Z,4.00
2023-04-17T18:01:27.319Z,4.00
2023-04-17T18:03:55.960Z,4.00
2023-04-17T18:06:25.274Z,4.30
2023-04-17T18:08:54.200Z,5.10
2023-04-17T18:11:23.039Z,4.40
2023-04-17T18:13:51.327Z,5.10
2023-04-17T18:16:19.839Z,4.30
2023-04-17T18:18:48.006Z,4.20
2023-04-17T18:21:16.176Z,4.00
2023-04-17T18:23:44.485Z,4.20
2023-04-17T18:26:13.175Z,4.40
2023-04-17T18:28:42.741Z,4.70
2023-04-17T18:31:11.219Z,4.50
2023-04-17T18:33:39.444Z,3.90
2023-04-17T18:36:08.808Z,4.60
2023-04-17T18:38:37.291Z,5.20
2023-04-17T18:41:05.989Z,5.50
2023-04-17T18:43:34.643Z,5.40
2023-04-17T18:46:04.940Z,5.20
2023-04-17T18:48:34.277Z,4.90
2023-04-17T18:51:12.774Z,4.50
2023-04-17T18:53:40.906Z,5.10
2023-04-17T18:56:10.904Z,4.60
2023-04-17T18:58:40.535Z,6.40
2023-04-17T19:01:10.731Z,5.40
2023-04-17T19:03:39.621Z,5.10
2023-04-17T19:06:07.757Z,4.40
2023-04-17T19:08:36.409Z,5.00
2023-04-17T19:11:04.419Z,4.70
2023-04-17T19:13:32.766Z,5.30
2023-04-17T19:16:01.056Z,5.10
2023-04-17T19:18:29.932Z,6.60
2023-04-17T19:20:58.086Z,5.70
2023-04-17T19:23:26.621Z,6.10
2023-04-17T19:25:55.208Z,5.90
2023-04-17T19:28:23.548Z,6.10
2023-04-17T19:30:51.742Z,7.00
2023-04-17T19:33:20.370Z,5.40
2023-04-17T19:35:52.533Z,5.70
2023-04-17T19:38:21.576Z,5.40
2023-04-17T19:41:17.486Z,5.90
2023-04-17T19:43:52.668Z,5.50
2023-04-17T19:46:21.771Z,7.10
2023-04-17T19:48:51.010Z,5.90
2023-04-17T19:51:19.336Z,6.00
2023-04-17T19:53:48.215Z,5.90
2023-04-17T19:56:16.504Z,5.60
2023-04-17T19:58:44.730Z,4.90
2023-04-17T20:01:12.981Z,5.10
2023-04-17T20:03:42.390Z,6.10
2023-04-17T20:06:10.792Z,6.60
2023-04-17T20:08:39.395Z,6.50
2023-04-17T20:11:12.204Z,6.20
2023-04-17T20:13:40.443Z,5.50
2023-04-17T20:16:08.542Z,5.40
2023-04-17T20:18:37.990Z,6.10
2023-04-17T20:21:06.587Z,5.70
2023-04-17T20:23:34.972Z,5.10
2023-04-17T20:26:03.514Z,5.70
2023-04-17T20:28:31.808Z,5.90
2023-04-17T20:30:59.973Z,5.40
2023-04-17T20:33:28.083Z,5.60
2023-04-17T20:35:56.411Z,5.30
2023-04-17T20:38:24.742Z,6.00
2023-04-17T20:40:52.794Z,6.30
2023-04-17T20:43:21.095Z,5.70
2023-04-17T20:45:49.765Z,6.00
2023-04-17T20:48:18.762Z,5.40
2023-04-17T20:50:46.874Z,5.00
2023-04-17T20:53:14.959Z,4.90
2023-04-17T20:55:43.069Z,5.20
2023-04-17T20:58:11.027Z,5.20
2023-04-17T21:00:44.855Z,5.50
2023-04-17T21:03:22.250Z,9.20
2023-04-17T21:05:50.263Z,6.80
2023-04-17T21:08:18.368Z,5.30
2023-04-17T21:10:46.375Z,5.70
2023-04-17T21:13:14.272Z,5.70
2023-04-17T21:15:42.334Z,4.90
2023-04-17T21:18:10.365Z,4.90
2023-04-17T21:20:38.956Z,5.20
2023-04-17T21:23:06.892Z,4.30
2023-04-17T21:25:35.849Z,4.10
2023-04-17T21:28:03.820Z,4.20
2023-04-17T21:30:32.074Z,3.90
2023-04-17T21:33:00.120Z,3.70
2023-04-17T21:35:28.197Z,3.80
2023-04-17T21:37:56.457Z,3.70
2023-04-17T21:40:26.143Z,3.90
2023-04-17T21:42:54.255Z,4.10
2023-04-17T21:45:22.199Z,4.20
2023-04-17T21:47:50.186Z,3.80
2023-04-17T21:50:18.315Z,4.00
2023-04-17T21:52:46.218Z,3.80
2023-04-17T21:55:14.128Z,4.80
2023-04-17T21:57:42.165Z,5.50
2023-04-17T22:00:14.520Z,6.10
2023-04-17T22:02:42.697Z,7.60
2023-04-17T22:05:11.628Z,6.10
2023-04-17T22:07:53.687Z,6.70
2023-04-17T22:10:23.835Z,6.30
2023-04-17T22:12:51.790Z,5.90
2023-04-17T22:15:19.703Z,6.40
2023-04-17T22:17:47.627Z,5.70
2023-04-17T22:20:15.792Z,6.30
2023-04-17T22:22:43.861Z,5.70
2023-04-17T22:25:11.795Z,6.30
2023-04-17T22:27:40.309Z,5.80
2023-04-17T22:30:08.473Z,6.00
2023-04-17T22:32:37.446Z,5.40
2023-04-17T22:35:06.590Z,4.60
2023-04-17T22:37:34.510Z,4.50
2023-04-17T22:40:02.571Z,5.20
2023-04-17T22:42:30.873Z,4.70
2023-04-17T22:44:58.786Z,4.60
2023-04-17T22:47:26.738Z,4.30
2023-04-17T22:49:55.157Z,4.90
2023-04-17T22:52:23.074Z,4.50
2023-04-17T22:54:51.001Z,4.20
2023-04-17T22:57:18.994Z,3.80
2023-04-17T22:59:46.942Z,3.90
2023-04-17T23:02:14.908Z,3.60
2023-04-17T23:04:42.871Z,3.50
2023-04-17T23:07:10.811Z,3.70
2023-04-17T23:09:39.149Z,3.80
2023-04-17T23:12:07.299Z,4.20
2023-04-17T23:14:35.491Z,4.00
2023-04-17T23:17:03.506Z,3.80
2023-04-17T23:19:31.841Z,3.60
2023-04-17T23:22:01.132Z,3.70
2023-04-17T23:24:32.230Z,3.70
2023-04-17T23:27:01.536Z,3.90
2023-04-17T23:29:29.436Z,3.60
2023-04-17T23:31:57.346Z,3.60
2023-04-17T23:34:26.068Z,2.90
2023-04-17T23:36:53.975Z,3.50
2023-04-17T23:39:22.340Z,3.30
2023-04-17T23:41:50.716Z,3.80
2023-04-17T23:44:18.856Z,3.60
2023-04-17T23:46:46.899Z,3.30
2023-04-17T23:49:14.778Z,3.30
2023-04-17T23:51:42.647Z,3.10
2023-04-17T23:54:10.569Z,3.80
2023-04-17T23:56:38.627Z,3.50
2023-04-17T23:59:06.908Z,3.50
